Ana Sayfa
METAR-TAF:

METAR-TAF

Havaalanları :

Kirsch Municipal Airport

Sturgis, Michigan, Amerika Birleşik Devletleri

Enlem: 41-48-46N, Boylam: 085-26-21W, yükseklik: 282 m

Güncel hava durumu gözlemi

Rapor saat 01:36 UTC de 15 dakika önce yapıldı.
Rüzgar doğudan 4 kt
Sıcaklık 9°C
Nem 43%
Basınç 1020 hPa
Görüş mesafesi: 16.1 km
Açık gökyüzü

METAR: KIRS 060136Z AUTO 08004KT 10SM CLR 09/M03 A3013 RMK AO2 T00911033

Saat: 21:51 (01:51 UTC)


TAF: eksik

4.000'den fazla havaalanı için hava durumu gözlemleri ve tahminleri (METAR ve TAF raporları).

Kullanılabilir istasyonlar harita üzerinde sarı ve kırmızı noktalarla gösterilir.

İstasyonun adını görmek için fareyi noktanın üzerinde gezdirin.

Sonrasında hava gözlem ve tahminlerini görmek için tıklayın.

Haritayı değiştirmek için: yaklaştırmak için siyah artı işaretli yeşil düğmeye ve uzaklaştırmak için de eksi işaretli düğmeye hızla tıklayın; bitişik haritalar için yeşil okları kullanın.


METAR-TAF: